Tuesday, September 16, 2014, 12:52 AM EDT

KW99, Petersburg, Grant County Airport

Location: Petersburg, WV, United States Lat: 38.983
Local Time: 12:52 AM EDT ( 4:52 GMT) Lon: -79.133
Time Zone: US/Eastern Elev: 961 ft

Show me the last for .
Show Decoded

2014-09-16 00:35 METAR KW99 160435Z AUTO 07004KT 10SM SCT060 14/13 A3006 RMK AO2 T01360127 =
2014-09-16 00:15 METAR KW99 160415Z AUTO 00000KT 10SM SCT048 SCT060 14/13 A3007 RMK AO2 T01410133
                 =
2014-09-15 23:55 METAR KW99 160355Z AUTO 27003KT 10SM SCT046 14/13 A3007 RMK AO2 T01440131 =
2014-09-15 23:35 METAR KW99 160335Z AUTO 00000KT 10SM SCT046 15/14 A3007 RMK AO2 T01530140 =
2014-09-15 23:15 METAR KW99 160315Z AUTO 33004KT 10SM CLR 15/14 A3006 RMK AO2 T01540143 =
2014-09-15 22:55 METAR KW99 160255Z AUTO 00000KT 7SM SCT048 15/15 A3004 RMK AO2 T01530146 =
2014-09-15 22:35 METAR KW99 160235Z AUTO 00000KT 10SM SCT050 15/14 A3005 RMK AO2 T01540144 =
2014-09-15 22:15 METAR KW99 160215Z AUTO 00000KT 10SM BKN050 BKN060 16/15 A3006 RMK AO2 T01580147
                 =
2014-09-15 21:55 METAR KW99 160155Z AUTO 00000KT 10SM BKN055 16/15 A3007 RMK AO2 T01580147 =
2014-09-15 21:35 METAR KW99 160135Z AUTO 00000KT 10SM SCT065 16/15 A3008 RMK AO2 T01620148 =
2014-09-15 21:15 METAR KW99 160115Z AUTO 00000KT 10SM BKN065 17/15 A3009 RMK AO2 T01650149 =
2014-09-15 20:55 METAR KW99 160055Z AUTO 29003KT 10SM SCT065 16/15 A3009 RMK AO2 T01610145 =
2014-09-15 20:35 METAR KW99 160035Z AUTO 00000KT 10SM CLR 17/15 A3009 RMK AO2 T01650150 =
2014-09-15 20:15 METAR KW99 160015Z AUTO 00000KT 10SM CLR 17/15 A3009 RMK AO2 T01710149 =
2014-09-15 19:55 METAR KW99 152355Z AUTO 00000KT 10SM CLR 17/15 A3009 RMK AO2 T01730150 10251
                 20173 =
2014-09-15 19:35 METAR KW99 152335Z AUTO 00000KT 10SM CLR 18/15 A3009 RMK AO2 T01800146 =
2014-09-15 19:15 METAR KW99 152315Z AUTO 00000KT 10SM CLR 19/15 A3010 RMK AO2 T01910145 =
2014-09-15 18:55 METAR KW99 152255Z AUTO 00000KT 10SM CLR 20/15 A3010 RMK AO2 T01980145 =
2014-09-15 18:35 METAR KW99 152235Z AUTO 00000KT 10SM CLR 22/12 A3010 RMK AO2 T02160120 =
2014-09-15 18:15 METAR KW99 152215Z AUTO 35003KT 10SM CLR 22/12 A3010 RMK AO2 T02240116 =
2014-09-15 17:55 METAR KW99 152155Z AUTO 02005KT 10SM CLR 24/11 A3010 RMK AO2 T02420108 =
2014-09-15 17:35 METAR KW99 152135Z AUTO 11004KT 10SM CLR 24/10 A3010 RMK AO2 T02420102 =
2014-09-15 17:15 METAR KW99 152115Z AUTO 00000KT 10SM CLR 24/10 A3011 RMK AO2 T02350097 =
2014-09-15 16:55 METAR KW99 152055Z AUTO 14005KT 10SM CLR 25/10 A3011 RMK AO2 T02450099 =
2014-09-15 16:35 METAR KW99 152035Z AUTO 10004KT 10SM CLR 25/10 A3011 RMK AO2 T02510099 =
2014-09-15 16:15 METAR KW99 152015Z AUTO 10004KT 10SM CLR 25/10 A3011 RMK AO2 T02500097 =
2014-09-15 15:55 METAR KW99 151955Z AUTO 00000KT 10SM CLR 24/10 A3012 RMK AO2 T02370095 =
2014-09-15 15:35 METAR KW99 151935Z AUTO 23003KT 10SM CLR 24/10 A3012 RMK AO2 T02420096 =
2014-09-15 15:15 METAR KW99 151915Z AUTO 10003KT 10SM CLR 24/09 A3013 RMK AO2 T02430094 =
2014-09-15 14:55 METAR KW99 151855Z AUTO 06004KT 10SM CLR 24/10 A3014 RMK AO2 T02410097 =
2014-09-15 14:35 METAR KW99 151835Z AUTO 00000KT 10SM CLR 23/09 A3015 RMK AO2 T02340091 =
2014-09-15 14:15 METAR KW99 151815Z AUTO 00000KT 10SM CLR 23/10 A3016 RMK AO2 T02330097 =
2014-09-15 13:55 METAR KW99 151755Z AUTO 10003KT 10SM CLR 23/10 A3017 RMK AO2 T02250103 10226
                 20102 =
2014-09-15 13:35 METAR KW99 151735Z AUTO 10004KT 10SM CLR 22/10 A3018 RMK AO2 T02200103 =
2014-09-15 13:15 METAR KW99 151715Z AUTO 00000KT 10SM CLR 22/10 A3019 RMK AO2 T02180098 =
2014-09-15 12:55 METAR KW99 151655Z AUTO 00000KT 10SM CLR 21/10 A3020 RMK AO2 T02140103 =
2014-09-15 12:35 METAR KW99 151635Z AUTO 00000KT 10SM CLR 20/11 A3021 RMK AO2 T02000105 =
2014-09-15 12:15 METAR KW99 151615Z AUTO 00000KT 10SM CLR 20/13 A3022 RMK AO2 T01960132 =
2014-09-15 11:55 METAR KW99 151555Z AUTO 00000KT 10SM CLR 18/13 A3022 RMK AO2 T01830131 =
2014-09-15 11:35 METAR KW99 151535Z AUTO 00000KT 10SM CLR 16/12 A3024 RMK AO2 T01560122 =
2014-09-15 11:15 METAR KW99 151515Z AUTO 13003KT 10SM CLR 15/12 A3025 RMK AO2 T01470123 =
2014-09-15 10:55 METAR KW99 151455Z AUTO 00000KT 10SM SCT004 14/13 A3026 RMK AO2 T01400127 =
2014-09-15 10:15 METAR KW99 151415Z AUTO 00000KT 10SM OVC002 12/10 A3027 RMK AO2 T01150102 =
2014-09-15 09:55 METAR KW99 151355Z AUTO 00000KT 7SM OVC002 11/10 A3028 RMK AO2 T01100097 =
2014-09-15 09:35 METAR KW99 151335Z AUTO 00000KT 1 1/2SM BR OVC002 11/10 A3028 RMK AO2 T01110097
                 =
2014-09-15 09:15 METAR KW99 151315Z AUTO 00000KT 1/4SM FG OVC002 11/10 A3027 RMK AO2 T01130099 =
2014-09-15 08:55 METAR KW99 151255Z AUTO 00000KT 1/2SM FG OVC002 11/10 A3028 RMK AO2 T01100096 =
2014-09-15 08:35 METAR KW99 151235Z AUTO 00000KT 1/4SM FG OVC002 11/10 A3028 RMK AO2 LTG DSNT W
                 T01080095 =
2014-09-15 08:15 METAR KW99 151215Z AUTO 00000KT 3/4SM BR OVC002 11/09 A3029 RMK AO2 T01060094 =
2014-09-15 07:55 METAR KW99 151155Z AUTO 00000KT 1/4SM FG OVC002 10/09 A3028 RMK AO2 T01030091
                 10110 20090 =
2014-09-15 07:35 METAR KW99 151135Z AUTO 00000KT M1/4SM FG OVC002 10/09 A3028 RMK AO2 T00980085 =
2014-09-15 07:15 METAR KW99 151115Z AUTO 00000KT 1/4SM FG OVC002 09/08 A3027 RMK AO2 T00940082 =
2014-09-15 06:55 METAR KW99 151055Z AUTO 00000KT 1/2SM FG OVC002 09/08 A3027 RMK AO2 T00930081 =
2014-09-15 06:35 METAR KW99 151035Z AUTO 00000KT 1/4SM FG OVC002 09/08 A3027 RMK AO2 T00900078 =
2014-09-15 06:15 METAR KW99 151015Z AUTO 00000KT 1/4SM FG OVC002 09/08 A3027 RMK AO2 T00940082 =
2014-09-15 05:55 METAR KW99 150955Z AUTO 00000KT 1/4SM FG OVC002 10/09 A3026 RMK AO2 T00980087 =
2014-09-15 05:35 METAR KW99 150935Z AUTO 00000KT 1/4SM FG OVC002 10/09 A3025 RMK AO2 T01020091 =
2014-09-15 05:15 METAR KW99 150915Z AUTO 00000KT 1/4SM FG OVC002 11/09 A3025 RMK AO2 T01060094 =
2014-09-15 04:55 METAR KW99 150855Z AUTO 00000KT 1/4SM FG OVC002 11/10 A3025 RMK AO2 T01070096 =
2014-09-15 04:35 METAR KW99 150835Z AUTO 00000KT 1/4SM FG OVC002 11/10 A3024 RMK AO2 T01080097 =
2014-09-15 04:15 METAR KW99 150815Z AUTO 00000KT 1/4SM FG OVC002 11/10 A3024 RMK AO2 T01100098 =
2014-09-15 03:55 METAR KW99 150755Z AUTO 00000KT 1/4SM FG OVC002 11/10 A3025 RMK AO2 T01090097 =
2014-09-15 03:35 METAR KW99 150735Z AUTO 00000KT 1/4SM FG OVC002 11/10 A3024 RMK AO2 T01080096 =
2014-09-15 03:15 METAR KW99 150715Z AUTO 00000KT 1/4SM FG OVC002 11/10 A3024 RMK AO2 T01060095 =
2014-09-15 02:55 METAR KW99 150655Z AUTO 00000KT 1/4SM FG OVC002 10/09 A3024 RMK AO2 T01040094 =
2014-09-15 02:35 METAR KW99 150635Z AUTO 00000KT 1 1/4SM BR OVC002 10/09 A3024 RMK AO2 T01010091
                 =
2014-09-15 02:15 METAR KW99 150615Z AUTO 00000KT 5SM BR OVC002 10/09 A3025 RMK AO2 T00980088 =
2014-09-15 01:55 METAR KW99 150555Z AUTO 00000KT 2 1/2SM BR OVC002 09/08 A3025 RMK AO2 VIS 1
                 1/2V5 T00890079 10149 20083 402130062 =
2014-09-15 01:35 METAR KW99 150535Z AUTO 00000KT 1 1/4SM BR OVC002 09/08 A3025 RMK AO2 T00930083
                 =
2014-09-15 01:15 METAR KW99 150515Z AUTO 00000KT 3/4SM BR OVC004 08/07 A3025 RMK AO2 VIS 1/2V5
                 T00840074 =
2014-09-15 00:55 METAR KW99 150455Z AUTO 00000KT 1 3/4SM BR BKN041 10/09 A3024 RMK AO2 T00960087
                 =

Support USWX by starting your Amazon purchase here.